createdAt,value
2023-05-06T01:33:51.884Z,0.00
2023-05-06T01:34:52.734Z,0.00
2023-05-06T01:35:52.735Z,0.00
2023-05-06T01:36:52.667Z,0.00
2023-05-06T01:37:52.702Z,0.00
2023-05-06T01:38:52.692Z,0.00
2023-05-06T01:39:52.666Z,0.00
2023-05-06T01:40:52.612Z,0.00
2023-05-06T01:41:52.631Z,0.00
2023-05-06T01:42:52.625Z,0.00
2023-05-06T01:43:52.590Z,0.00
2023-05-06T01:47:27.962Z,0.00
2023-05-06T01:48:28.862Z,0.00
2023-05-06T01:49:28.851Z,0.00
2023-05-06T01:50:28.908Z,0.00
2023-05-06T01:51:28.778Z,0.00
2023-05-06T01:52:28.775Z,0.00
2023-05-06T01:53:28.765Z,0.00
2023-05-06T01:54:28.753Z,0.00
2023-05-06T01:55:42.558Z,0.00
2023-05-06T01:56:28.797Z,0.00
2023-05-06T01:57:28.826Z,0.00
2023-05-06T01:58:28.707Z,0.00
2023-05-06T01:59:29.580Z,0.00
2023-05-06T02:00:28.710Z,0.00
2023-05-06T02:01:28.788Z,0.00
2023-05-06T02:02:28.725Z,0.00
2023-05-06T02:03:28.716Z,0.00
2023-05-06T02:04:28.673Z,1.00
2023-05-06T02:05:28.642Z,0.00
2023-05-06T02:06:28.663Z,0.00
2023-05-06T02:07:28.622Z,0.00
2023-05-06T02:08:28.626Z,0.00
2023-05-06T02:09:28.630Z,0.00
2023-05-06T02:10:28.606Z,0.00
2023-05-06T02:11:28.601Z,0.00
2023-05-06T02:12:28.741Z,0.00
2023-05-06T02:13:28.615Z,0.00
2023-05-06T02:14:28.564Z,0.00
2023-05-06T02:15:28.543Z,0.00
2023-05-06T02:16:28.664Z,0.00
2023-05-06T02:17:28.613Z,0.00
2023-05-06T02:18:28.531Z,0.00
2023-05-06T02:19:28.548Z,0.00
2023-05-06T02:20:28.515Z,0.00
2023-05-06T02:21:28.484Z,0.00
2023-05-06T02:22:28.456Z,0.00
2023-05-06T02:23:28.510Z,0.00
2023-05-06T02:24:28.474Z,0.00
2023-05-06T02:25:28.446Z,0.00
2023-05-06T02:26:28.458Z,0.00
2023-05-06T02:27:28.469Z,0.00
2023-05-06T02:28:28.427Z,0.00
2023-05-06T02:29:28.412Z,0.00
2023-05-06T02:30:28.416Z,0.00
2023-05-06T02:31:28.472Z,0.00
2023-05-06T02:32:28.402Z,0.00
2023-05-06T02:33:28.372Z,0.00
2023-05-06T02:34:28.338Z,0.00
2023-05-06T02:35:28.347Z,0.00
2023-05-06T02:36:28.361Z,0.00
2023-05-06T02:37:28.319Z,0.00
2023-05-06T02:38:28.317Z,0.00
2023-05-06T02:39:28.364Z,0.00
2023-05-06T02:40:28.290Z,0.00
2023-05-06T02:41:28.349Z,0.00
2023-05-06T02:42:28.286Z,0.00
2023-05-06T02:43:28.309Z,0.00
2023-05-06T02:44:28.258Z,0.00
2023-05-06T02:45:28.276Z,0.00
2023-05-06T02:46:28.210Z,0.00
2023-05-06T02:47:28.242Z,0.00
2023-05-06T02:48:28.212Z,0.00
2023-05-06T02:49:28.187Z,0.00
2023-05-06T02:50:28.165Z,0.00
2023-05-06T02:51:28.184Z,0.00
2023-05-06T02:52:28.147Z,0.00
2023-05-06T02:53:28.178Z,0.00
2023-05-06T02:54:28.192Z,0.00
2023-05-06T02:55:28.150Z,0.00
2023-05-06T02:56:28.138Z,0.00
2023-05-06T02:57:28.122Z,0.00
2023-05-06T02:58:28.114Z,0.00
2023-05-06T02:59:28.131Z,0.00
2023-05-06T03:00:28.106Z,0.00
2023-05-06T03:01:28.134Z,0.00
2023-05-06T03:02:28.114Z,0.00
2023-05-06T03:03:28.050Z,0.00
2023-05-06T03:04:40.504Z,0.00
2023-05-06T03:05:28.095Z,0.00
2023-05-06T03:06:28.164Z,0.00
2023-05-06T03:07:28.016Z,0.00
2023-05-06T03:08:28.029Z,0.00
2023-05-06T03:09:27.984Z,0.00
2023-05-06T03:10:28.030Z,0.00
2023-05-06T03:11:27.964Z,0.00
2023-05-06T03:12:27.979Z,0.00
2023-05-06T03:13:27.960Z,0.00
2023-05-06T03:14:27.939Z,0.00
2023-05-06T03:15:27.960Z,0.00
2023-05-06T03:16:27.976Z,0.00
2023-05-06T03:17:27.972Z,0.00
2023-05-06T03:18:27.899Z,0.00
2023-05-06T03:19:27.879Z,0.00
2023-05-06T03:20:27.803Z,1.00
2023-05-06T03:21:27.864Z,1.00
2023-05-06T03:22:27.820Z,1.00
2023-05-06T03:23:27.786Z,1.00
2023-05-06T03:24:27.774Z,1.00
2023-05-06T03:25:27.817Z,2.00
2023-05-06T03:26:27.755Z,2.00
2023-05-06T03:27:27.793Z,2.00
2023-05-06T03:28:27.756Z,2.00
2023-05-06T03:29:27.742Z,3.00
2023-05-06T03:30:27.699Z,1.00
2023-05-06T03:31:27.760Z,2.00
2023-05-06T03:32:27.733Z,3.00
2023-05-06T03:33:27.709Z,3.00
2023-05-06T03:34:27.680Z,7.00
2023-05-06T03:35:27.655Z,9.00
2023-05-06T03:36:27.674Z,8.00
2023-05-06T03:37:27.668Z,7.00
2023-05-06T03:38:27.642Z,3.00
2023-05-06T03:39:27.618Z,6.00
2023-05-06T03:40:27.608Z,9.00
2023-05-06T03:41:27.607Z,10.00
2023-05-06T03:42:27.613Z,13.00
2023-05-06T03:43:27.579Z,13.00
2023-05-06T03:44:27.568Z,14.00
2023-05-06T03:45:27.564Z,14.00
2023-05-06T03:46:27.596Z,24.00
2023-05-06T03:47:27.575Z,22.00
2023-05-06T03:48:27.553Z,22.00
2023-05-06T03:49:27.575Z,25.00
2023-05-06T03:50:27.527Z,32.00
2023-05-06T03:51:27.499Z,32.00
2023-05-06T03:52:27.501Z,34.00
2023-05-06T03:53:27.493Z,36.00
2023-05-06T03:54:27.462Z,38.00
2023-05-06T03:55:27.486Z,38.00
2023-05-06T03:56:27.482Z,45.00
2023-05-06T03:57:27.460Z,51.00
2023-05-06T03:58:27.430Z,57.00
2023-05-06T03:59:27.415Z,60.00
2023-05-06T04:00:27.388Z,65.00
2023-05-06T04:01:27.384Z,69.00
2023-05-06T04:02:27.471Z,77.00
2023-05-06T04:03:27.414Z,78.00
2023-05-06T04:04:27.449Z,86.00
2023-05-06T04:05:27.376Z,93.00
2023-05-06T04:06:27.338Z,97.00
2023-05-06T04:07:27.321Z,102.00
2023-05-06T04:08:27.314Z,111.00
2023-05-06T04:09:27.314Z,117.00
2023-05-06T04:10:27.299Z,125.00
2023-05-06T04:11:29.615Z,131.00
2023-05-06T04:12:27.246Z,139.00
2023-05-06T04:13:27.331Z,143.00
2023-05-06T04:14:27.311Z,145.00
2023-05-06T04:15:27.234Z,158.00
2023-05-06T04:16:27.262Z,162.00
2023-05-06T04:17:27.226Z,172.00
2023-05-06T04:18:27.220Z,178.00
2023-05-06T04:19:27.198Z,182.00
2023-05-06T04:20:27.188Z,193.00
2023-05-06T04:21:27.201Z,197.00
2023-05-06T04:22:27.163Z,202.00
2023-05-06T04:23:27.175Z,211.00
2023-05-06T04:24:27.148Z,211.00
2023-05-06T04:25:27.125Z,207.00
2023-05-06T04:26:27.122Z,227.00
2023-05-06T04:27:27.149Z,229.00
2023-05-06T04:28:27.104Z,245.00
2023-05-06T04:29:27.117Z,267.00
2023-05-06T04:30:27.065Z,284.00
2023-05-06T04:31:27.085Z,307.00
2023-05-06T04:32:27.192Z,314.00
2023-05-06T04:33:27.074Z,316.00
2023-05-06T04:34:27.043Z,322.00
2023-05-06T04:35:27.091Z,313.00
2023-05-06T04:36:27.054Z,306.00
2023-05-06T04:37:27.036Z,319.00
2023-05-06T04:38:27.040Z,315.00
2023-05-06T04:39:26.970Z,322.00
2023-05-06T04:40:26.983Z,331.00
2023-05-06T04:41:26.982Z,356.00
2023-05-06T04:42:26.960Z,396.00
2023-05-06T04:43:26.988Z,441.00
2023-05-06T04:44:26.949Z,443.00
2023-05-06T04:45:26.953Z,442.00
2023-05-06T04:46:26.960Z,429.00
2023-05-06T04:47:26.923Z,417.00
2023-05-06T04:48:26.954Z,413.00
2023-05-06T04:49:26.908Z,405.00
2023-05-06T04:50:26.868Z,407.00
2023-05-06T04:51:26.906Z,408.00
2023-05-06T04:52:26.933Z,413.00
2023-05-06T04:53:26.872Z,429.00
2023-05-06T04:54:26.857Z,440.00
2023-05-06T04:55:26.836Z,437.00
2023-05-06T04:56:26.827Z,454.00
2023-05-06T04:57:26.829Z,461.00
2023-05-06T04:58:26.806Z,468.00
2023-05-06T04:59:26.787Z,476.00
2023-05-06T05:00:26.826Z,483.00
2023-05-06T05:01:26.786Z,494.00
2023-05-06T05:02:26.883Z,507.00
2023-05-06T05:03:26.777Z,517.00
2023-05-06T05:04:26.750Z,517.00
2023-05-06T05:05:26.756Z,524.00
2023-05-06T05:06:26.718Z,533.00
2023-05-06T05:07:26.721Z,542.00
2023-05-06T05:08:26.701Z,555.00
2023-05-06T05:09:26.701Z,572.00
2023-05-06T05:10:26.668Z,583.00
2023-05-06T05:11:26.659Z,586.00
2023-05-06T05:12:26.638Z,589.00
2023-05-06T05:13:26.640Z,608.00
2023-05-06T05:14:26.629Z,617.00
2023-05-06T05:15:26.630Z,619.00
2023-05-06T05:16:26.635Z,638.00
2023-05-06T05:17:26.648Z,654.00
2023-05-06T05:18:26.623Z,661.00
2023-05-06T05:19:26.613Z,672.00
2023-05-06T05:20:26.586Z,680.00
2023-05-06T05:21:26.592Z,693.00
2023-05-06T05:22:26.538Z,711.00
2023-05-06T05:23:26.592Z,729.00
2023-05-06T05:24:26.537Z,738.00
2023-05-06T05:25:26.505Z,741.00
2023-05-06T05:26:26.526Z,732.00
2023-05-06T05:27:26.492Z,723.00
2023-05-06T05:28:26.561Z,728.00
2023-05-06T05:29:26.468Z,703.00
2023-05-06T05:30:26.532Z,697.00
2023-05-06T05:31:26.521Z,716.00
2023-05-06T05:32:26.592Z,730.00
2023-05-06T05:33:26.481Z,736.00
2023-05-06T05:34:26.426Z,726.00
2023-05-06T05:35:26.423Z,731.00
2023-05-06T05:36:26.408Z,732.00
2023-05-06T05:37:26.407Z,723.00
2023-05-06T05:38:26.410Z,726.00
2023-05-06T05:39:26.446Z,739.00
2023-05-06T05:40:26.360Z,735.00
2023-05-06T05:41:26.405Z,745.00
2023-05-06T05:42:26.351Z,755.00
2023-05-06T05:43:26.321Z,759.00
2023-05-06T05:44:26.359Z,771.00
2023-05-06T05:45:26.353Z,782.00
2023-05-06T05:47:52.506Z,792.00
2023-05-06T05:48:53.501Z,798.00
2023-05-06T05:49:53.438Z,779.00
2023-05-06T05:50:53.427Z,814.00
2023-05-06T05:51:53.472Z,806.00
2023-05-06T05:52:53.426Z,794.00
2023-05-06T05:53:53.398Z,807.00
2023-05-06T05:54:53.441Z,815.00
2023-05-06T05:55:54.231Z,782.00
2023-05-06T05:56:53.356Z,801.00
2023-05-06T05:57:53.388Z,880.00
2023-05-06T05:58:53.344Z,909.00
2023-05-06T05:59:53.298Z,799.00
2023-05-06T06:00:53.338Z,847.00
2023-05-06T06:01:53.370Z,842.00
2023-05-06T06:03:53.468Z,892.00
2023-05-06T06:06:12.664Z,912.00
2023-05-06T06:07:13.710Z,863.00
2023-05-06T06:09:49.903Z,982.00
2023-05-06T06:11:00.956Z,852.00
2023-05-06T06:11:50.943Z,1127.00
2023-05-06T06:12:50.899Z,970.00
2023-05-06T06:13:50.800Z,987.00
2023-05-06T06:14:50.866Z,1034.00
2023-05-06T06:15:50.909Z,996.00
2023-05-06T06:16:50.833Z,1110.00
2023-05-06T06:17:50.820Z,970.00
2023-05-06T06:18:50.748Z,967.00
2023-05-06T06:19:50.792Z,1073.00
2023-05-06T06:20:53.067Z,1016.00
2023-05-06T06:21:50.755Z,1035.00
2023-05-06T06:22:50.820Z,937.00
2023-05-06T06:23:50.764Z,1212.00
2023-05-06T06:24:50.717Z,1064.00
2023-05-06T06:27:33.510Z,1094.00
2023-05-06T06:28:34.509Z,1239.00
2023-05-06T06:29:34.351Z,1043.00
2023-05-06T06:30:34.251Z,986.00
2023-05-06T06:31:34.360Z,1058.00
2023-05-06T06:32:34.316Z,1029.00
2023-05-06T06:33:34.357Z,981.00
2023-05-06T06:34:34.246Z,1275.00
2023-05-06T06:35:34.209Z,788.00
2023-05-06T06:36:34.190Z,981.00
2023-05-06T06:37:34.235Z,1080.00
2023-05-06T06:38:34.284Z,1065.00
2023-05-06T06:39:34.299Z,1077.00
2023-05-06T06:40:34.142Z,1084.00
2023-05-06T06:41:34.134Z,1066.00
2023-05-06T06:42:34.131Z,1106.00
2023-05-06T06:51:08.373Z,1065.00
2023-05-06T06:51:59.216Z,1008.00
2023-05-06T06:52:59.370Z,1242.00
2023-05-06T06:53:59.259Z,1147.00
2023-05-06T06:54:59.304Z,1050.00
2023-05-06T06:55:59.194Z,1034.00
2023-05-06T06:56:59.174Z,1337.00
2023-05-06T06:57:59.182Z,689.00
2023-05-06T08:06:02.934Z,1368.00
2023-05-06T08:08:42.228Z,1786.00
2023-05-06T08:09:43.197Z,1517.00
2023-05-06T08:10:43.219Z,1910.00
2023-05-06T08:11:43.319Z,1692.00
2023-05-06T08:12:43.212Z,2314.00
2023-05-06T08:13:43.257Z,1312.00
2023-05-06T08:14:43.140Z,1565.00
2023-05-06T08:15:43.154Z,1495.00
2023-05-06T08:16:43.328Z,1436.00
2023-05-06T08:17:43.159Z,1854.00
2023-05-06T08:18:43.166Z,1616.00
2023-05-06T08:19:43.116Z,1829.00
2023-05-06T08:20:43.094Z,1715.00
2023-05-06T08:21:43.124Z,2053.00
2023-05-06T08:22:43.286Z,1769.00
2023-05-06T08:23:43.114Z,1456.00
2023-05-06T08:24:43.064Z,1491.00
2023-05-06T08:25:43.041Z,1287.00
2023-05-06T08:26:43.029Z,2655.00
2023-05-06T08:27:43.116Z,1655.00
2023-05-06T08:28:43.079Z,1731.00
2023-05-06T08:29:43.029Z,1222.00
2023-05-06T08:30:43.007Z,1742.00
2023-05-06T08:31:43.221Z,1998.00
2023-05-06T08:32:42.958Z,1847.00
2023-05-06T08:33:43.017Z,2725.00
2023-05-06T08:34:42.935Z,1751.00
2023-05-06T08:35:42.932Z,1454.00
2023-05-06T08:36:43.056Z,1245.00
2023-05-06T08:37:42.928Z,1231.00
2023-05-06T08:38:42.891Z,1294.00
2023-05-06T08:39:43.216Z,1608.00
2023-05-06T08:40:42.971Z,1247.00
2023-05-06T08:41:42.879Z,748.00
2023-05-06T08:42:42.927Z,1942.00
2023-05-06T08:43:42.858Z,2747.00
2023-05-06T08:53:28.930Z,1810.00
2023-05-06T08:54:29.893Z,1790.00
2023-05-06T08:55:29.975Z,1483.00
2023-05-06T08:56:29.959Z,2389.00
2023-05-06T08:57:29.871Z,1341.00
2023-05-06T08:58:29.918Z,1287.00
2023-05-06T08:59:29.943Z,1410.00
2023-05-06T09:00:29.911Z,2163.00
2023-05-06T09:01:29.932Z,1128.00
2023-05-06T09:02:29.895Z,2402.00
2023-05-06T09:03:30.006Z,1901.00
2023-05-06T09:04:29.888Z,1917.00
2023-05-06T09:05:29.803Z,1659.00
2023-05-06T09:06:29.795Z,982.00
2023-05-06T09:07:29.758Z,1536.00
2023-05-06T09:08:29.787Z,1588.00
2023-05-06T09:09:29.771Z,2171.00
2023-05-06T09:10:29.862Z,1728.00
2023-05-06T09:11:29.735Z,973.00
2023-05-06T09:12:29.712Z,1655.00
2023-05-06T09:16:44.974Z,1398.00
2023-05-06T09:17:45.943Z,1170.00
2023-05-06T09:18:45.876Z,915.00
2023-05-06T09:19:45.839Z,1027.00
2023-05-06T09:20:45.840Z,1706.00
2023-05-06T09:21:45.875Z,1807.00
2023-05-06T09:22:45.834Z,1223.00
2023-05-06T09:23:45.821Z,606.00
2023-05-06T09:24:45.800Z,1233.00
2023-05-06T09:25:45.790Z,1409.00
2023-05-06T09:26:45.773Z,1380.00
2023-05-06T09:27:45.852Z,1547.00
2023-05-06T09:28:45.801Z,1989.00
2023-05-06T09:29:45.774Z,647.00
2023-05-06T09:30:45.804Z,1633.00
2023-05-06T09:31:45.825Z,736.00
2023-05-06T09:32:45.804Z,1633.00
2023-05-06T09:33:45.722Z,1615.00
2023-05-06T09:34:45.799Z,1341.00
2023-05-06T09:35:45.734Z,1283.00
2023-05-06T09:36:46.258Z,1476.00
2023-05-06T09:37:45.676Z,1106.00
2023-05-06T09:38:45.644Z,1820.00
2023-05-06T09:39:45.640Z,1933.00
2023-05-06T09:40:45.612Z,1853.00
2023-05-06T09:41:45.611Z,1824.00
2023-05-06T09:42:45.617Z,1449.00
2023-05-06T09:43:45.624Z,1253.00
2023-05-06T09:44:45.581Z,1160.00
2023-05-06T09:45:45.590Z,2234.00
2023-05-06T09:46:45.682Z,839.00
2023-05-06T09:47:45.599Z,1619.00
2023-05-06T09:48:45.934Z,1452.00
2023-05-06T09:49:45.568Z,1352.00
2023-05-06T09:50:45.691Z,1414.00
2023-05-06T09:51:45.541Z,1498.00
2023-05-06T09:52:45.544Z,1189.00
2023-05-06T09:53:45.527Z,1649.00
2023-05-06T09:54:45.488Z,1663.00
2023-05-06T09:55:45.466Z,1521.00
2023-05-06T09:56:45.489Z,1786.00
2023-05-06T09:57:45.435Z,1616.00
2023-05-06T09:58:45.491Z,1771.00
2023-05-06T09:59:45.520Z,1551.00
2023-05-06T10:00:45.407Z,1732.00
2023-05-06T10:01:45.520Z,1637.00
2023-05-06T10:02:45.603Z,1548.00
2023-05-06T10:03:45.504Z,1553.00
2023-05-06T10:04:45.633Z,2304.00
2023-05-06T10:05:45.389Z,1835.00
2023-05-06T10:06:45.351Z,1716.00
2023-05-06T10:07:45.372Z,1566.00
2023-05-06T10:08:45.387Z,1655.00
2023-05-06T10:09:45.315Z,1691.00
2023-05-06T10:10:45.320Z,1882.00
2023-05-06T10:11:45.367Z,1618.00
2023-05-06T10:12:45.310Z,1470.00
2023-05-06T10:13:45.301Z,1799.00
2023-05-06T10:14:45.400Z,1838.00
2023-05-06T10:15:45.349Z,2099.00
2023-05-06T10:16:45.247Z,1358.00
2023-05-06T10:17:45.281Z,871.00
2023-05-06T10:18:45.231Z,1333.00
2023-05-06T10:19:45.235Z,1379.00
2023-05-06T10:20:45.249Z,1329.00
2023-05-06T10:21:45.186Z,1150.00
2023-05-06T10:22:45.204Z,1365.00
2023-05-06T10:23:45.218Z,1453.00
2023-05-06T10:24:45.153Z,1579.00
2023-05-06T10:25:45.232Z,1314.00
2023-05-06T10:26:45.162Z,1521.00
2023-05-06T10:27:45.163Z,1299.00
2023-05-06T10:28:45.100Z,1406.00
2023-05-06T10:29:45.136Z,2026.00
2023-05-06T10:30:45.134Z,1807.00
2023-05-06T10:31:45.122Z,1675.00
2023-05-06T10:32:45.133Z,1949.00
2023-05-06T10:33:45.079Z,1671.00
2023-05-06T10:34:45.124Z,1679.00
2023-05-06T10:35:45.056Z,1585.00
2023-05-06T10:36:45.067Z,1766.00
2023-05-06T10:37:45.151Z,1628.00
2023-05-06T10:38:45.027Z,1617.00
2023-05-06T10:39:45.036Z,2110.00
2023-05-06T10:40:45.001Z,1125.00
2023-05-06T10:41:45.004Z,1882.00
2023-05-06T10:42:44.973Z,849.00
2023-05-06T10:43:44.970Z,1692.00
2023-05-06T10:44:46.124Z,1740.00
2023-05-06T10:45:45.007Z,1696.00
2023-05-06T10:46:44.941Z,1591.00
2023-05-06T10:47:44.938Z,1675.00
2023-05-06T10:48:44.933Z,2114.00
2023-05-06T10:49:44.912Z,707.00
2023-05-06T10:50:46.770Z,1809.00
2023-05-06T10:51:44.894Z,1474.00
2023-05-06T10:52:44.868Z,1407.00
2023-05-06T10:53:44.863Z,1528.00
2023-05-06T10:54:44.856Z,1600.00
2023-05-06T10:55:44.843Z,1450.00
2023-05-06T10:56:46.331Z,1798.00
2023-05-06T10:57:44.803Z,1473.00
2023-05-06T10:58:44.785Z,1612.00
2023-05-06T10:59:44.814Z,1573.00
2023-05-06T11:00:44.808Z,1719.00
2023-05-06T11:01:44.770Z,1556.00
2023-05-06T11:02:47.402Z,1386.00
2023-05-06T11:03:44.912Z,1658.00
2023-05-06T11:04:44.752Z,1754.00
2023-05-06T11:05:44.785Z,1808.00
2023-05-06T11:06:44.839Z,1701.00
2023-05-06T11:07:44.737Z,1714.00
2023-05-06T11:08:46.547Z,1724.00
2023-05-06T11:09:44.694Z,1847.00
2023-05-06T11:10:44.709Z,1726.00
2023-05-06T11:11:44.669Z,1743.00
2023-05-06T11:12:44.675Z,1912.00
2023-05-06T11:13:44.663Z,2127.00
2023-05-06T11:14:44.630Z,2071.00
2023-05-06T11:15:44.647Z,3092.00
2023-05-06T11:16:44.656Z,724.00
2023-05-06T11:17:44.611Z,1917.00
2023-05-06T11:18:44.673Z,1942.00
2023-05-06T11:19:44.597Z,1749.00
2023-05-06T11:20:44.591Z,1768.00
2023-05-06T11:21:44.604Z,1968.00
2023-05-06T11:22:44.590Z,1353.00
2023-05-06T11:23:44.567Z,2156.00
2023-05-06T11:24:44.536Z,1568.00
2023-05-06T11:25:44.552Z,1929.00
2023-05-06T11:26:44.547Z,2572.00
2023-05-06T11:27:44.564Z,2935.00
2023-05-06T11:28:44.481Z,1484.00
2023-05-06T11:29:44.637Z,2635.00
2023-05-06T11:30:44.548Z,1989.00
2023-05-06T11:31:44.520Z,815.00
2023-05-06T11:32:44.483Z,2952.00
2023-05-06T11:33:44.454Z,1000.00
2023-05-06T11:34:44.418Z,2076.00
2023-05-06T11:35:44.426Z,3452.00
2023-05-06T11:36:44.416Z,1905.00
2023-05-06T11:37:44.418Z,3286.00
2023-05-06T11:38:44.414Z,1731.00
2023-05-06T11:39:44.393Z,1044.00
2023-05-06T11:40:44.386Z,2749.00
2023-05-06T11:41:44.766Z,2292.00
2023-05-06T11:42:44.329Z,2549.00
2023-05-06T11:43:44.399Z,2568.00
2023-05-06T11:44:44.341Z,2715.00
2023-05-06T11:45:44.448Z,2498.00
2023-05-06T11:46:44.379Z,2764.00
2023-05-06T11:47:44.373Z,2549.00
2023-05-06T11:48:44.282Z,2543.00
2023-05-06T11:49:44.333Z,2633.00
2023-05-06T11:50:44.258Z,2359.00
2023-05-06T11:51:44.255Z,1995.00
2023-05-06T11:52:44.247Z,2655.00
2023-05-06T11:53:44.290Z,2146.00
2023-05-06T11:54:44.274Z,2150.00
2023-05-06T11:55:44.233Z,2331.00
2023-05-06T11:56:44.210Z,2278.00
2023-05-06T11:57:44.214Z,2182.00
2023-05-06T11:58:44.188Z,2352.00
2023-05-06T11:59:44.200Z,2335.00
2023-05-06T12:00:44.162Z,2487.00
2023-05-06T12:01:44.133Z,2481.00
2023-05-06T12:02:44.218Z,2343.00
2023-05-06T12:03:44.332Z,2328.00
2023-05-06T12:04:44.157Z,2854.00
2023-05-06T12:05:44.117Z,2163.00
2023-05-06T12:06:44.092Z,1292.00
2023-05-06T12:07:44.083Z,1306.00
2023-05-06T12:08:44.074Z,2412.00
2023-05-06T12:09:44.056Z,1283.00
2023-05-06T12:10:44.039Z,1642.00
2023-05-06T12:11:44.990Z,2084.00
2023-05-06T12:12:44.039Z,1882.00
2023-05-06T12:13:44.010Z,2042.00
2023-05-06T12:14:44.002Z,2615.00
2023-05-06T12:15:44.073Z,2658.00
2023-05-06T12:16:44.142Z,2446.00
2023-05-06T12:17:44.038Z,984.00
2023-05-06T12:18:43.981Z,1958.00
2023-05-06T12:19:44.000Z,2787.00
2023-05-06T12:20:43.949Z,1903.00
2023-05-06T12:21:43.924Z,2070.00
2023-05-06T12:22:43.902Z,2024.00
2023-05-06T12:23:43.971Z,891.00
2023-05-06T12:24:43.906Z,2146.00
2023-05-06T12:25:43.890Z,2100.00
2023-05-06T12:26:43.888Z,2185.00
2023-05-06T12:27:43.914Z,2158.00
2023-05-06T12:28:43.851Z,2206.00
2023-05-06T12:29:43.869Z,2202.00
2023-05-06T12:30:43.833Z,2327.00
2023-05-06T12:31:43.930Z,2414.00
2023-05-06T12:32:43.834Z,2433.00
2023-05-06T12:33:43.826Z,2380.00
2023-05-06T12:34:43.786Z,2324.00
2023-05-06T12:35:43.805Z,2359.00
2023-05-06T12:36:43.794Z,2347.00
2023-05-06T12:37:43.777Z,2474.00
2023-05-06T12:38:43.758Z,2473.00
2023-05-06T12:39:43.758Z,2532.00
2023-05-06T12:40:43.767Z,2478.00
2023-05-06T12:41:43.744Z,2508.00
2023-05-06T12:42:43.708Z,2444.00
2023-05-06T12:43:43.707Z,2400.00
2023-05-06T12:44:43.682Z,2512.00
2023-05-06T12:45:43.721Z,2449.00
2023-05-06T12:46:43.671Z,2439.00
2023-05-06T12:47:43.720Z,2499.00
2023-05-06T12:48:43.663Z,2466.00
2023-05-06T12:49:43.643Z,2646.00
2023-05-06T12:50:43.653Z,2379.00
2023-05-06T12:51:45.683Z,2545.00
2023-05-06T12:52:43.612Z,2453.00
2023-05-06T12:53:43.588Z,2511.00
2023-05-06T12:54:43.589Z,2570.00
2023-05-06T12:55:43.630Z,2479.00
2023-05-06T12:56:43.566Z,2543.00
2023-05-06T12:57:43.562Z,2504.00
2023-05-06T12:58:43.568Z,2583.00
2023-05-06T12:59:43.541Z,2275.00
2023-05-06T13:00:43.590Z,2311.00
2023-05-06T13:01:43.509Z,2226.00
2023-05-06T13:02:43.620Z,2400.00
2023-05-06T13:03:43.532Z,2443.00
2023-05-06T13:04:43.484Z,2444.00
2023-05-06T13:05:43.479Z,2408.00
2023-05-06T13:06:43.464Z,2841.00
2023-05-06T13:07:43.472Z,2699.00
2023-05-06T13:08:43.431Z,2368.00
2023-05-06T13:09:43.438Z,2055.00
2023-05-06T13:10:43.484Z,1860.00
2023-05-06T13:11:43.452Z,2167.00
2023-05-06T13:12:43.458Z,2226.00
2023-05-06T13:13:43.434Z,2351.00
2023-05-06T13:14:43.391Z,2336.00
2023-05-06T13:15:43.376Z,2323.00
2023-05-06T13:16:43.456Z,2310.00
2023-05-06T13:17:43.435Z,2469.00
2023-05-06T13:18:43.333Z,2515.00
2023-05-06T13:19:43.404Z,2449.00
2023-05-06T13:20:43.326Z,2385.00
2023-05-06T13:21:43.331Z,2382.00
2023-05-06T13:22:53.645Z,2288.00
2023-05-06T13:23:43.294Z,2370.00
2023-05-06T13:24:43.274Z,2279.00
2023-05-06T13:25:56.387Z,2318.00
2023-05-06T13:26:43.272Z,2973.00
2023-05-06T13:27:43.244Z,1313.00
2023-05-06T13:28:43.244Z,2361.00
2023-05-06T13:29:43.249Z,2448.00
2023-05-06T13:30:43.239Z,2601.00
2023-05-06T13:31:43.197Z,2548.00
2023-05-06T13:32:43.265Z,2719.00
2023-05-06T13:33:43.183Z,2581.00
2023-05-06T13:34:43.190Z,2502.00
2023-05-06T13:35:43.169Z,2516.00
2023-05-06T13:36:43.163Z,2427.00
2023-05-06T13:37:43.155Z,2463.00
2023-05-06T13:38:43.145Z,2218.00
2023-05-06T13:39:43.128Z,2049.00
2023-05-06T13:40:43.125Z,2055.00
2023-05-06T13:41:43.187Z,2066.00
2023-05-06T13:42:43.098Z,2079.00
2023-05-06T13:43:43.910Z,2088.00
2023-05-06T13:44:43.194Z,2140.00
2023-05-06T13:45:43.461Z,2116.00
2023-05-06T13:46:45.652Z,2240.00
2023-05-06T13:47:43.219Z,2180.00
2023-05-06T13:48:43.135Z,2286.00
2023-05-06T13:49:43.097Z,2259.00
2023-05-06T13:50:43.143Z,2062.00
2023-05-06T13:51:43.167Z,2049.00
2023-05-06T13:52:43.376Z,2091.00
2023-05-06T13:53:42.977Z,2188.00
2023-05-06T13:54:42.994Z,2219.00
2023-05-06T13:55:42.977Z,2293.00
2023-05-06T13:56:43.032Z,2153.00
2023-05-06T13:57:42.935Z,2291.00
2023-05-06T13:58:42.927Z,2265.00
2023-05-06T13:59:42.959Z,2303.00
2023-05-06T14:00:42.917Z,2287.00
2023-05-06T14:01:43.108Z,2161.00
2023-05-06T14:02:43.277Z,2140.00
2023-05-06T14:03:43.051Z,2570.00
2023-05-06T14:04:43.086Z,2093.00
2023-05-06T14:05:42.878Z,2118.00
2023-05-06T14:06:42.980Z,2035.00
2023-05-06T14:07:42.842Z,2148.00
2023-05-06T14:08:42.838Z,2348.00
2023-05-06T14:09:42.850Z,2154.00
2023-05-06T14:10:42.804Z,2149.00
2023-05-06T14:11:42.851Z,2134.00
2023-05-06T14:12:43.055Z,2194.00
2023-05-06T14:13:43.245Z,2189.00
2023-05-06T14:14:42.782Z,2326.00
2023-05-06T14:15:42.747Z,2125.00
2023-05-06T14:16:42.847Z,2394.00
2023-05-06T14:17:42.770Z,2133.00
2023-05-06T14:18:43.311Z,2228.00
2023-05-06T14:19:42.718Z,2189.00
2023-05-06T14:20:42.712Z,2132.00
2023-05-06T14:21:43.676Z,2071.00
2023-05-06T14:22:42.783Z,2119.00
2023-05-06T14:23:42.695Z,2168.00
2023-05-06T14:24:42.708Z,2136.00
2023-05-06T14:25:42.658Z,2169.00
2023-05-06T14:26:42.719Z,2125.00
2023-05-06T14:27:42.681Z,2077.00
2023-05-06T14:28:42.632Z,2124.00
2023-05-06T14:29:42.984Z,2704.00
2023-05-06T14:30:42.603Z,1680.00
2023-05-06T14:31:42.656Z,2219.00
2023-05-06T14:32:42.688Z,2079.00
2023-05-06T14:33:42.614Z,2051.00
2023-05-06T14:34:42.601Z,1933.00
2023-05-06T14:35:42.560Z,2014.00
2023-05-06T14:36:42.559Z,1962.00
2023-05-06T14:37:42.579Z,1890.00
2023-05-06T14:38:42.545Z,1895.00
2023-05-06T14:39:42.547Z,1849.00
2023-05-06T14:40:42.499Z,1814.00
2023-05-06T14:41:42.499Z,1808.00
2023-05-06T14:42:42.724Z,1776.00
2023-05-06T14:43:42.586Z,1762.00
2023-05-06T14:44:42.535Z,1720.00
2023-05-06T14:45:42.455Z,1697.00
2023-05-06T14:46:42.477Z,1706.00
2023-05-06T14:47:42.488Z,1705.00
2023-05-06T14:48:42.487Z,1786.00
2023-05-06T14:49:42.716Z,1695.00
2023-05-06T14:50:42.485Z,1673.00
2023-05-06T14:51:42.372Z,1660.00
2023-05-06T14:52:42.421Z,1631.00
2023-05-06T14:53:42.419Z,1653.00
2023-05-06T14:54:42.647Z,1692.00
2023-05-06T14:55:42.410Z,1730.00
2023-05-06T14:56:42.344Z,1787.00
2023-05-06T14:57:42.412Z,1823.00
2023-05-06T14:58:42.327Z,1944.00
2023-05-06T14:59:42.319Z,2007.00
2023-05-06T15:00:42.324Z,2067.00
2023-05-06T15:01:42.316Z,2063.00
2023-05-06T15:02:42.313Z,2070.00
2023-05-06T15:03:42.256Z,2114.00
2023-05-06T15:04:43.538Z,2158.00
2023-05-06T15:05:43.045Z,2169.00
2023-05-06T15:06:42.263Z,2240.00
2023-05-06T15:07:42.254Z,2214.00
2023-05-06T15:08:42.217Z,2200.00
2023-05-06T15:09:42.264Z,2273.00
2023-05-06T15:10:42.181Z,2289.00
2023-05-06T15:11:42.218Z,2153.00
2023-05-06T15:12:42.229Z,2080.00
2023-05-06T15:13:42.207Z,2064.00
2023-05-06T15:14:42.232Z,2059.00
2023-05-06T15:15:42.161Z,2043.00
2023-05-06T15:16:42.178Z,1974.00
2023-05-06T15:17:42.139Z,2038.00
2023-05-06T15:18:42.103Z,1999.00
2023-05-06T15:19:42.108Z,1980.00
2023-05-06T15:20:42.159Z,2012.00
2023-05-06T15:21:42.065Z,2048.00
2023-05-06T15:22:42.180Z,2061.00
2023-05-06T15:23:42.145Z,2082.00
2023-05-06T15:24:42.130Z,2099.00
2023-05-06T15:25:42.303Z,2120.00
2023-05-06T15:26:42.120Z,2193.00
2023-05-06T15:27:42.065Z,2307.00
2023-05-06T15:28:42.020Z,2345.00
2023-05-06T16:17:42.416Z,1492.00
2023-05-06T16:18:43.312Z,1498.00
2023-05-06T16:19:43.347Z,1484.00
2023-05-06T16:20:43.459Z,1488.00
2023-05-06T16:21:43.229Z,1473.00
2023-05-06T16:22:43.207Z,1467.00